KLUM

Menomonie Municipal-Score Field Airport

Menomonie, Wisconsin, USA
METAR KLUM 231435Z AUTO 12006KT 10SM CLR 20/15 A3015 RMK AO2 T01960153
Observed Flight Rules
May-23 @ 14:35 UTC (25 minutes ago) Visual Flight Rules
Wind Visibility Clouds
120° at 6 knots 10 miles
  • Clear skies
Temperatures Readings
Current 20°C / 68°F
Dewpoint 15°C / 59°F
Humidity 73%
Altimeter 30.15" Hg
Pressure 1021 hPa
Elevation 273
METAR KLUM 231435Z AUTO 12006KT 10SM CLR 20/15 A3015 RMK AO2 T01960153
Observed Flight Rules
May-23 @ 14:35 UTC
(25 minutes ago)
VFR
Wind Visibility
120° at 6 knots 10 miles
Clouds
  • Clear skies
Temperature Dewpoint
20°C / 68°F 15°C / 59°F
Humidity Altimeter Pressure
73% 30.15" Hg 1021 hPa